createdAt,value
2022-08-09T00:00:01.028Z,102618.75
2022-08-09T00:02:34.944Z,102618.50
2022-08-09T00:06:18.347Z,102616.41
2022-08-09T00:07:52.346Z,102622.66
2022-08-09T00:10:24.549Z,102618.09
2022-08-09T00:12:53.513Z,102624.19
2022-08-09T00:15:35.541Z,102623.22
2022-08-09T00:18:12.397Z,102626.28
2022-08-09T00:20:50.318Z,102622.88
2022-08-09T00:23:55.013Z,102617.56
2022-08-09T00:26:11.139Z,102614.50
2022-08-09T00:28:40.741Z,102625.22
2022-08-09T00:31:57.192Z,102620.31
2022-08-09T00:33:57.794Z,102618.69
2022-08-09T00:36:27.345Z,102615.28
2022-08-09T00:38:59.213Z,102619.06
2022-08-09T00:44:16.376Z,102621.66
2022-08-09T00:44:25.689Z,102625.44
2022-08-09T00:46:56.264Z,102623.63
2022-08-09T00:49:26.490Z,102616.44
2022-08-09T00:51:57.189Z,102619.66
2022-08-09T00:54:35.360Z,102618.72
2022-08-09T00:57:10.619Z,102618.63
2022-08-09T00:59:40.972Z,102619.47
2022-08-09T01:02:20.213Z,102623.56
2022-08-09T01:04:54.336Z,102628.47
2022-08-09T01:07:37.944Z,102627.81
2022-08-09T01:10:31.883Z,102619.47
2022-08-09T01:13:09.144Z,102629.63
2022-08-09T01:15:52.761Z,102634.28
2022-08-09T01:18:29.864Z,102631.63
2022-08-09T01:21:16.206Z,102628.97
2022-08-09T01:24:02.179Z,102630.28
2022-08-09T01:27:01.860Z,102631.69
2022-08-09T01:29:41.049Z,102629.72
2022-08-09T01:32:29.459Z,102629.81
2022-08-09T01:35:18.313Z,102630.16
2022-08-09T01:38:10.071Z,102633.66
2022-08-09T01:40:52.681Z,102633.38
2022-08-09T01:43:42.158Z,102637.06
2022-08-09T01:46:24.939Z,102631.28
2022-08-09T01:49:00.258Z,102626.63
2022-08-09T01:51:38.669Z,102630.81
2022-08-09T01:54:12.063Z,102635.06
2022-08-09T01:56:51.543Z,102630.63
2022-08-09T01:59:23.457Z,102630.22
2022-08-09T02:01:59.810Z,102636.97
2022-08-09T02:04:30.891Z,102640.56
2022-08-09T02:08:34.751Z,102644.44
2022-08-09T02:10:08.590Z,102641.78
2022-08-09T02:12:39.473Z,102635.34
2022-08-09T02:15:17.011Z,102637.06
2022-08-09T02:18:00.724Z,102635.63
2022-08-09T02:20:38.344Z,102634.09
2022-08-09T02:23:09.865Z,102636.06
2022-08-09T02:25:52.791Z,102629.94
2022-08-09T02:28:28.413Z,102635.91
2022-08-09T02:31:05.950Z,102633.91
2022-08-09T02:34:07.599Z,102621.78
2022-08-09T02:36:32.515Z,102623.69
2022-08-09T02:39:04.728Z,102628.63
2022-08-09T02:41:39.412Z,102625.47
2022-08-09T02:44:29.008Z,102631.03
2022-08-09T02:47:04.471Z,102624.56
2022-08-09T02:49:38.317Z,102617.47
2022-08-09T02:52:08.610Z,102624.22
2022-08-09T02:54:54.092Z,102619.94
2022-08-09T02:57:24.939Z,102615.56
2022-08-09T03:00:25.326Z,102618.22
2022-08-09T03:02:58.199Z,102612.25
2022-08-09T03:05:28.077Z,102618.09
2022-08-09T03:07:56.915Z,102610.97
2022-08-09T03:10:27.338Z,102606.81
2022-08-09T03:12:57.443Z,102606.88
2022-08-09T03:16:04.203Z,102613.41
2022-08-09T03:18:19.085Z,102603.72
2022-08-09T03:21:00.730Z,102614.75
2022-08-09T03:23:29.916Z,102610.38
2022-08-09T03:26:04.715Z,102617.50
2022-08-09T03:28:35.012Z,102616.06
2022-08-09T03:31:10.196Z,102615.19
2022-08-09T03:33:54.964Z,102625.13
2022-08-09T03:36:27.519Z,102615.13
2022-08-09T03:38:56.765Z,102614.19
2022-08-09T03:41:29.943Z,102619.63
2022-08-09T03:44:12.947Z,102621.78
2022-08-09T03:46:43.723Z,102618.09
2022-08-09T03:49:17.381Z,102621.44
2022-08-09T03:51:57.089Z,102614.19
2022-08-09T03:54:31.110Z,102624.69
2022-08-09T03:57:04.451Z,102620.59
2022-08-09T03:59:54.721Z,102618.72
2022-08-09T04:02:27.955Z,102624.44
2022-08-09T04:04:59.205Z,102625.53
2022-08-09T04:07:47.899Z,102636.75
2022-08-09T04:10:20.415Z,102630.16
2022-08-09T04:12:51.519Z,102624.19
2022-08-09T04:15:38.941Z,102626.50
2022-08-09T04:18:16.688Z,102625.63
2022-08-09T04:20:47.677Z,102624.97
2022-08-09T04:23:17.116Z,102626.41
2022-08-09T04:25:51.853Z,102627.00
2022-08-09T04:28:33.467Z,102635.19
2022-08-09T04:31:10.243Z,102629.88
2022-08-09T04:33:51.981Z,102635.69
2022-08-09T04:36:25.859Z,102633.06
2022-08-09T04:38:54.177Z,102639.56
2022-08-09T04:41:23.862Z,102639.56
2022-08-09T04:44:07.275Z,102647.69
2022-08-09T04:46:58.418Z,102649.47
2022-08-09T04:49:40.173Z,102658.28
2022-08-09T04:52:18.476Z,102659.19
2022-08-09T04:54:51.680Z,102659.09
2022-08-09T04:57:24.053Z,102660.66
2022-08-09T04:59:54.065Z,102661.66
2022-08-09T05:02:22.564Z,102666.13
2022-08-09T05:04:54.996Z,102666.13
2022-08-09T05:07:27.702Z,102661.66
2022-08-09T05:09:57.805Z,102672.13
2022-08-09T05:12:30.024Z,102664.75
2022-08-09T05:14:59.060Z,102674.50
2022-08-09T05:18:38.257Z,102674.09
2022-08-09T05:20:15.345Z,102670.53
2022-08-09T05:23:55.492Z,102665.88
2022-08-09T05:25:32.978Z,102670.16
2022-08-09T05:28:03.302Z,102668.63
2022-08-09T05:30:31.382Z,102676.50
2022-08-09T05:33:00.741Z,102682.50
2022-08-09T05:35:30.408Z,102691.72
2022-08-09T05:38:08.382Z,102689.91
2022-08-09T05:40:36.555Z,102694.97
2022-08-09T05:43:04.746Z,102689.31
2022-08-09T05:45:52.791Z,102693.50
2022-08-09T05:48:20.868Z,102695.72
2022-08-09T05:51:16.708Z,102693.56
2022-08-09T05:53:56.632Z,102698.16
2022-08-09T05:56:28.047Z,102689.72
2022-08-09T05:58:59.053Z,102699.69
2022-08-09T06:01:34.035Z,102699.22
2022-08-09T06:04:12.303Z,102701.53
2022-08-09T06:06:46.714Z,102703.81
2022-08-09T06:09:23.100Z,102700.50
2022-08-09T06:12:08.178Z,102702.72
2022-08-09T06:14:37.134Z,102701.28
2022-08-09T06:17:09.495Z,102698.28
2022-08-09T06:19:38.456Z,102699.34
2022-08-09T06:22:15.054Z,102703.31
2022-08-09T06:24:45.110Z,102708.16
2022-08-09T06:27:15.667Z,102709.09
2022-08-09T06:29:48.104Z,102713.03
2022-08-09T06:32:59.605Z,102710.44
2022-08-09T06:35:15.195Z,102720.94
2022-08-09T06:37:53.396Z,102721.97
2022-08-09T06:40:33.375Z,102721.91
2022-08-09T06:43:02.144Z,102714.75
2022-08-09T06:46:05.962Z,102714.13
2022-08-09T06:48:30.474Z,102714.09
2022-08-09T06:50:59.724Z,102719.97
2022-08-09T06:53:38.238Z,102711.59
2022-08-09T06:56:09.259Z,102716.84
2022-08-09T07:00:46.942Z,102715.44
2022-08-09T07:01:27.636Z,102730.25
2022-08-09T07:04:20.075Z,102740.50
2022-08-09T07:06:48.354Z,102729.63
2022-08-09T07:09:55.564Z,102726.94
2022-08-09T07:12:17.343Z,102727.06
2022-08-09T07:14:51.469Z,102724.16
2022-08-09T07:17:21.528Z,102730.28
2022-08-09T07:19:50.680Z,102733.53
2022-08-09T07:22:27.414Z,102720.81
2022-08-09T07:25:05.525Z,102724.97
2022-08-09T07:27:42.728Z,102730.38
2022-08-09T07:30:13.613Z,102726.66
2022-08-09T07:32:42.671Z,102723.44
2022-08-09T07:35:12.952Z,102731.97
2022-08-09T07:37:45.830Z,102733.44
2022-08-09T07:40:17.398Z,102728.38
2022-08-09T07:42:56.224Z,102739.97
2022-08-09T07:45:39.731Z,102739.22
2022-08-09T07:48:28.365Z,102733.88
2022-08-09T07:51:09.935Z,102726.53
2022-08-09T07:54:05.671Z,102725.53
2022-08-09T07:56:37.047Z,102720.84
2022-08-09T07:59:15.986Z,102717.13
2022-08-09T08:01:55.999Z,102719.13
2022-08-09T08:04:31.282Z,102725.00
2022-08-09T08:07:09.286Z,102724.50
2022-08-09T08:09:46.043Z,102733.56
2022-08-09T08:12:34.406Z,102734.84
2022-08-09T08:15:04.538Z,102732.59
2022-08-09T08:17:52.377Z,102733.75
2022-08-09T08:20:29.477Z,102723.88
2022-08-09T08:23:03.693Z,102726.69
2022-08-09T08:25:44.028Z,102725.81
2022-08-09T08:28:14.179Z,102729.53
2022-08-09T08:30:45.057Z,102715.13
2022-08-09T08:33:23.635Z,102730.13
2022-08-09T08:35:59.156Z,102739.16
2022-08-09T08:38:29.582Z,102728.84
2022-08-09T08:40:59.051Z,102724.59
2022-08-09T08:43:27.874Z,102725.63
2022-08-09T08:46:32.991Z,102729.56
2022-08-09T08:48:54.227Z,102727.25
2022-08-09T08:51:23.107Z,102727.97
2022-08-09T08:54:03.584Z,102744.44
2022-08-09T08:56:37.983Z,102740.72
2022-08-09T08:59:20.079Z,102742.59
2022-08-09T09:01:52.449Z,102735.22
2022-08-09T09:04:31.341Z,102746.63
2022-08-09T09:07:11.174Z,102734.59
2022-08-09T09:10:02.189Z,102740.25
2022-08-09T09:12:34.213Z,102732.72
2022-08-09T09:15:05.792Z,102742.66
2022-08-09T09:17:49.112Z,102730.41
2022-08-09T09:20:21.756Z,102739.25
2022-08-09T09:22:55.441Z,102738.00
2022-08-09T09:26:02.186Z,102736.53
2022-08-09T09:29:01.669Z,102730.53
2022-08-09T09:32:04.048Z,102721.28
2022-08-09T09:34:18.299Z,102722.84
2022-08-09T09:36:53.746Z,102722.31
2022-08-09T09:39:42.750Z,102730.59
2022-08-09T09:42:24.482Z,102725.66
2022-08-09T09:44:57.758Z,102735.22
2022-08-09T09:47:28.452Z,102731.19
2022-08-09T09:50:14.315Z,102725.34
2022-08-09T09:52:56.399Z,102743.78
2022-08-09T09:55:31.396Z,102741.66
2022-08-09T09:58:18.003Z,102735.72
2022-08-09T10:00:53.827Z,102741.66
2022-08-09T10:03:44.853Z,102733.56
2022-08-09T10:06:32.106Z,102733.63
2022-08-09T10:09:12.047Z,102742.66
2022-08-09T10:12:11.481Z,102735.97
2022-08-09T10:14:44.003Z,102732.28
2022-08-09T10:17:51.071Z,102734.31
2022-08-09T10:20:32.520Z,102733.16
2022-08-09T10:23:20.958Z,102733.63
2022-08-09T10:26:06.586Z,102725.84
2022-08-09T10:28:41.239Z,102718.63
2022-08-09T10:34:09.868Z,102712.00
2022-08-09T10:36:39.891Z,102711.16
2022-08-09T10:39:15.812Z,102714.38
2022-08-09T10:41:48.263Z,102719.03
2022-08-09T10:44:22.027Z,102717.50
2022-08-09T10:48:16.872Z,102709.00
2022-08-09T10:50:30.671Z,102706.44
2022-08-09T10:53:10.292Z,102718.09
2022-08-09T10:55:58.477Z,102708.38
2022-08-09T10:58:33.414Z,102708.09
2022-08-09T11:03:02.445Z,102701.13
2022-08-09T11:04:30.604Z,102701.47
2022-08-09T11:07:56.808Z,102705.38
2022-08-09T11:10:57.794Z,102703.69
2022-08-09T11:13:50.220Z,102698.56
2022-08-09T11:16:35.879Z,102701.06
2022-08-09T11:19:09.522Z,102705.03
2022-08-09T11:21:57.467Z,102702.41
2022-08-09T11:25:09.849Z,102698.19
2022-08-09T11:28:03.999Z,102691.47
2022-08-09T11:30:36.159Z,102686.25
2022-08-09T11:33:06.857Z,102693.59
2022-08-09T11:35:49.539Z,102686.44
2022-08-09T11:38:22.078Z,102682.53
2022-08-09T11:40:52.931Z,102684.75
2022-08-09T11:43:43.090Z,102675.75
2022-08-09T11:46:11.644Z,102669.66
2022-08-09T11:48:50.861Z,102678.22
2022-08-09T11:53:03.626Z,102681.63
2022-08-09T11:54:28.901Z,102673.97
2022-08-09T11:57:48.020Z,102666.31
2022-08-09T12:00:28.135Z,102677.63
2022-08-09T12:02:57.901Z,102672.81
2022-08-09T12:05:39.594Z,102671.41
2022-08-09T12:08:12.442Z,102668.50
2022-08-09T12:10:53.709Z,102661.63
2022-08-09T12:14:10.013Z,102665.78
2022-08-09T12:16:37.175Z,102661.91
2022-08-09T12:19:09.683Z,102659.00
2022-08-09T12:21:48.794Z,102666.84
2022-08-09T12:24:25.678Z,102655.38
2022-08-09T12:29:15.304Z,102653.72
2022-08-09T12:30:04.227Z,102645.81
2022-08-09T12:32:44.755Z,102647.84
2022-08-09T12:35:19.083Z,102650.34
2022-08-09T12:37:52.007Z,102649.94
2022-08-09T12:40:26.833Z,102638.84
2022-08-09T12:42:57.033Z,102630.16
2022-08-09T12:45:34.057Z,102626.66
2022-08-09T12:48:19.993Z,102628.97
2022-08-09T12:50:59.415Z,102634.41
2022-08-09T12:53:37.661Z,102627.41
2022-08-09T12:56:14.045Z,102622.28
2022-08-09T12:59:12.081Z,102620.94
2022-08-09T13:01:48.842Z,102623.72
2022-08-09T13:04:37.675Z,102623.44
2022-08-09T13:07:14.446Z,102624.44
2022-08-09T13:09:52.827Z,102617.69
2022-08-09T13:12:29.431Z,102622.50
2022-08-09T13:15:07.366Z,102622.31
2022-08-09T13:18:03.806Z,102620.00
2022-08-09T13:20:37.535Z,102607.66
2022-08-09T13:24:16.847Z,102608.00
2022-08-09T13:26:37.663Z,102606.53
2022-08-09T13:29:13.375Z,102602.19
2022-08-09T13:32:20.250Z,102610.56
2022-08-09T13:34:44.733Z,102608.50
2022-08-09T13:37:24.564Z,102600.53
2022-08-09T13:41:46.176Z,102605.53
2022-08-09T13:42:53.436Z,102592.56
2022-08-09T13:45:22.009Z,102591.31
2022-08-09T13:48:01.976Z,102590.22
2022-08-09T13:50:31.767Z,102586.44
2022-08-09T13:53:01.268Z,102578.31
2022-08-09T13:55:30.402Z,102585.38
2022-08-09T13:57:59.468Z,102574.78
2022-08-09T14:00:29.451Z,102576.25
2022-08-09T14:03:04.463Z,102578.22
2022-08-09T14:06:00.716Z,102590.56
2022-08-09T14:08:32.387Z,102579.59
2022-08-09T14:11:01.288Z,102592.59
2022-08-09T14:14:24.516Z,102574.25
2022-08-09T14:16:28.115Z,102575.06
2022-08-09T14:18:58.502Z,102580.13
2022-08-09T14:21:29.651Z,102585.13
2022-08-09T14:24:10.380Z,102581.34
2022-08-09T14:26:51.440Z,102564.63
2022-08-09T14:29:25.439Z,102569.50
2022-08-09T14:32:11.240Z,102568.19
2022-08-09T14:34:41.974Z,102570.34
2022-08-09T14:37:10.479Z,102569.34
2022-08-09T14:39:46.550Z,102564.22
2022-08-09T14:42:30.232Z,102566.63
2022-08-09T14:45:14.904Z,102558.53
2022-08-09T14:47:57.008Z,102572.25
2022-08-09T14:50:27.540Z,102565.44
2022-08-09T14:52:55.537Z,102567.31
2022-08-09T14:55:24.961Z,102569.22
2022-08-09T14:57:53.078Z,102571.97
2022-08-09T15:00:23.126Z,102563.31
2022-08-09T15:02:52.195Z,102559.25
2022-08-09T15:05:21.132Z,102555.25
2022-08-09T15:07:56.377Z,102562.38
2022-08-09T15:10:26.983Z,102555.22
2022-08-09T15:12:56.008Z,102553.34
2022-08-09T15:15:28.294Z,102556.91
2022-08-09T15:17:56.893Z,102546.84
2022-08-09T15:21:57.453Z,102552.59
2022-08-09T15:24:02.277Z,102560.78
2022-08-09T15:26:05.291Z,102535.09
2022-08-09T15:28:54.792Z,102541.50
2022-08-09T15:31:40.502Z,102541.22
2022-08-09T15:34:31.608Z,102542.59
2022-08-09T15:36:58.194Z,102538.09
2022-08-09T15:39:34.622Z,102538.69
2022-08-09T15:42:16.078Z,102533.41
2022-08-09T15:44:46.909Z,102531.00
2022-08-09T15:47:22.526Z,102531.53
2022-08-09T15:50:04.320Z,102527.41
2022-08-09T15:52:34.774Z,102530.88
2022-08-09T15:55:03.268Z,102525.19
2022-08-09T15:57:35.335Z,102531.50
2022-08-09T16:00:24.208Z,102521.69
2022-08-09T16:02:56.153Z,102527.28
2022-08-09T16:05:47.327Z,102525.13
2022-08-09T16:08:29.796Z,102522.63
2022-08-09T16:10:59.932Z,102521.47
2022-08-09T16:14:05.482Z,102518.09
2022-08-09T16:16:19.831Z,102525.41
2022-08-09T16:18:48.217Z,102516.25
2022-08-09T16:21:16.787Z,102523.53
2022-08-09T16:23:55.089Z,102509.31
2022-08-09T16:26:34.760Z,102509.78
2022-08-09T16:29:11.036Z,102514.56
2022-08-09T16:32:19.793Z,102512.69
2022-08-09T16:34:55.672Z,102517.72
2022-08-09T16:37:18.438Z,102523.03
2022-08-09T16:40:02.659Z,102505.22
2022-08-09T16:42:33.989Z,102511.41
2022-08-09T16:45:03.681Z,102507.94
2022-08-09T16:48:38.849Z,102503.50
2022-08-09T16:50:30.259Z,102505.00
2022-08-09T16:53:02.205Z,102503.38
2022-08-09T16:55:57.821Z,102513.00
2022-08-09T16:58:21.065Z,102504.75
2022-08-09T17:00:51.717Z,102506.97
2022-08-09T17:03:21.987Z,102510.88
2022-08-09T17:06:06.718Z,102497.25
2022-08-09T17:08:45.641Z,102490.44
2022-08-09T17:11:40.256Z,102501.78
2022-08-09T17:14:25.512Z,102506.50
2022-08-09T17:16:59.962Z,102511.78
2022-08-09T17:19:47.460Z,102506.00
2022-08-09T17:22:23.977Z,102509.25
2022-08-09T17:25:03.652Z,102515.81
2022-08-09T17:27:33.039Z,102520.16
2022-08-09T17:30:06.672Z,102528.81
2022-08-09T17:32:37.998Z,102523.78
2022-08-09T17:35:12.429Z,102525.75
2022-08-09T17:38:14.193Z,102522.72
2022-08-09T17:40:30.498Z,102528.84
2022-08-09T17:43:10.653Z,102525.72
2022-08-09T17:46:03.681Z,102529.56
2022-08-09T17:48:33.745Z,102523.47
2022-08-09T17:51:09.660Z,102531.56
2022-08-09T17:53:52.035Z,102519.34
2022-08-09T17:56:27.444Z,102526.47
2022-08-09T17:58:58.298Z,102532.00
2022-08-09T18:01:26.370Z,102536.41
2022-08-09T18:04:16.209Z,102536.78
2022-08-09T18:06:54.424Z,102539.81
2022-08-09T18:09:40.593Z,102538.63
2022-08-09T18:12:17.494Z,102533.75
2022-08-09T18:14:54.174Z,102535.91
2022-08-09T18:17:27.698Z,102540.84
2022-08-09T18:20:57.012Z,102538.78
2022-08-09T18:23:05.483Z,102540.66
2022-08-09T18:25:52.554Z,102537.44
2022-08-09T18:30:37.725Z,102540.25
2022-08-09T18:31:12.542Z,102543.41
2022-08-09T18:33:40.682Z,102540.03
2022-08-09T18:36:14.085Z,102540.16
2022-08-09T18:39:00.899Z,102536.56
2022-08-09T18:41:34.882Z,102551.34
2022-08-09T18:44:13.105Z,102550.94
2022-08-09T18:46:49.453Z,102546.38
2022-08-09T18:49:32.224Z,102546.38
2022-08-09T18:52:11.874Z,102547.81
2022-08-09T18:54:49.593Z,102545.38
2022-08-09T18:57:23.038Z,102542.44
2022-08-09T18:59:56.350Z,102553.63
2022-08-09T19:02:31.714Z,102548.09
2022-08-09T19:05:04.390Z,102550.78
2022-08-09T19:07:59.351Z,102553.75
2022-08-09T19:10:37.728Z,102558.78
2022-08-09T19:13:19.130Z,102556.88
2022-08-09T19:15:51.055Z,102547.94
2022-08-09T19:18:33.098Z,102553.44
2022-08-09T19:21:09.516Z,102557.19
2022-08-09T19:24:32.014Z,102558.00
2022-08-09T19:26:31.658Z,102560.94
2022-08-09T19:29:02.567Z,102568.91
2022-08-09T19:31:45.067Z,102574.16
2022-08-09T19:34:22.062Z,102577.44
2022-08-09T19:36:52.103Z,102575.31
2022-08-09T19:42:15.244Z,102582.59
2022-08-09T19:44:49.315Z,102579.03
2022-08-09T19:47:23.746Z,102581.44
2022-08-09T19:50:10.077Z,102579.91
2022-08-09T19:52:49.412Z,102579.34
2022-08-09T19:55:30.569Z,102575.09
2022-08-09T19:58:16.071Z,102578.19
2022-08-09T20:00:46.755Z,102576.06
2022-08-09T20:04:10.892Z,102569.72
2022-08-09T20:06:10.374Z,102581.50
2022-08-09T20:08:51.353Z,102579.94
2022-08-09T20:11:21.620Z,102584.16
2022-08-09T20:13:54.888Z,102576.00
2022-08-09T20:16:37.976Z,102589.13
2022-08-09T20:19:47.737Z,102580.13
2022-08-09T20:22:01.730Z,102582.88
2022-08-09T20:24:34.192Z,102582.31
2022-08-09T20:27:08.550Z,102575.13
2022-08-09T20:29:38.829Z,102568.03
2022-08-09T20:32:31.395Z,102567.88
2022-08-09T20:34:56.879Z,102574.16
2022-08-09T20:37:25.209Z,102573.19
2022-08-09T20:40:15.443Z,102573.28
2022-08-09T20:42:59.581Z,102577.19
2022-08-09T20:46:00.143Z,102583.00
2022-08-09T20:48:21.284Z,102591.91
2022-08-09T20:50:55.652Z,102592.44
2022-08-09T20:53:36.846Z,102599.19
2022-08-09T20:56:19.852Z,102598.09
2022-08-09T20:58:54.525Z,102606.66
2022-08-09T21:01:34.517Z,102607.16
2022-08-09T21:05:51.261Z,102609.81
2022-08-09T21:07:11.386Z,102610.84
2022-08-09T21:09:45.585Z,102603.78
2022-08-09T21:14:48.989Z,102609.16
2022-08-09T21:18:11.479Z,102604.56
2022-08-09T21:20:22.810Z,102610.44
2022-08-09T21:22:55.080Z,102607.72
2022-08-09T21:25:44.480Z,102606.16
2022-08-09T21:28:33.621Z,102616.97
2022-08-09T21:31:17.698Z,102608.97
2022-08-09T21:33:51.423Z,102612.03
2022-08-09T21:36:28.066Z,102615.78
2022-08-09T21:38:59.146Z,102610.16
2022-08-09T21:42:03.896Z,102607.75
2022-08-09T21:44:32.904Z,102609.69
2022-08-09T21:47:07.404Z,102603.75
2022-08-09T21:49:39.553Z,102605.09
2022-08-09T21:52:16.723Z,102610.44
2022-08-09T21:54:56.942Z,102612.72
2022-08-09T21:57:38.383Z,102617.69
2022-08-09T22:00:26.799Z,102616.22
2022-08-09T22:03:04.530Z,102621.06
2022-08-09T22:05:36.922Z,102619.34
2022-08-09T22:08:13.498Z,102614.31
2022-08-09T22:11:49.910Z,102612.00
2022-08-09T22:13:34.692Z,102615.47
2022-08-09T22:16:07.928Z,102615.13
2022-08-09T22:18:38.041Z,102619.84
2022-08-09T22:21:09.407Z,102617.06
2022-08-09T22:24:00.265Z,102613.75
2022-08-09T22:26:34.960Z,102605.16
2022-08-09T22:29:08.851Z,102622.88
2022-08-09T22:31:44.591Z,102618.94
2022-08-09T22:34:27.041Z,102616.63
2022-08-09T22:36:55.726Z,102624.00
2022-08-09T22:39:57.198Z,102623.59
2022-08-09T22:42:20.734Z,102623.59
2022-08-09T22:48:05.187Z,102614.44
2022-08-09T22:48:14.261Z,102620.91
2022-08-09T22:50:30.162Z,102616.22
2022-08-09T22:52:58.745Z,102620.72
2022-08-09T22:55:39.352Z,102617.31
2022-08-09T22:58:20.318Z,102609.19
2022-08-09T23:01:00.559Z,102615.84
2022-08-09T23:04:02.485Z,102609.50
2022-08-09T23:06:32.781Z,102606.25
2022-08-09T23:09:05.765Z,102602.34
2022-08-09T23:11:33.787Z,102605.22
2022-08-09T23:14:03.131Z,102613.91
2022-08-09T23:16:32.355Z,102605.91
2022-08-09T23:19:00.544Z,102616.66
2022-08-09T23:21:35.887Z,102617.63
2022-08-09T23:24:07.400Z,102619.22
2022-08-09T23:26:36.185Z,102619.94
2022-08-09T23:29:04.954Z,102622.97
2022-08-09T23:31:33.186Z,102620.59
2022-08-09T23:34:01.217Z,102622.84
2022-08-09T23:36:33.761Z,102622.78
2022-08-09T23:39:02.257Z,102625.78
2022-08-09T23:41:30.385Z,102618.97
2022-08-09T23:43:59.681Z,102608.72
2022-08-09T23:46:28.559Z,102616.72
2022-08-09T23:48:56.648Z,102617.66
2022-08-09T23:51:24.964Z,102616.16
2022-08-09T23:54:02.251Z,102614.38
2022-08-09T23:56:52.270Z,102623.94
2022-08-09T23:59:20.752Z,102622.78
